Time;durP1;ratioP1;P1;durP2;ratioP2;P2;SDS_P1;SDS_P2;PMS_P1;PMS_P2;Temp;Humidity;BMP_temperature;BMP_pressure;BME280_temperature;BME280_humidity;BME280_pressure;Samples;Min_cycle;Max_cycle;Signal;HPM_P1;HPM_P2
2022/11/21 00:00:10;;;;;;;22.53;16.23;;;4.60;99.90;;;;;;5062846;28;20498;-83
2022/11/21 00:02:37;;;;;;;23.70;17.73;;;4.60;99.90;;;;;;5063423;28;20535;-83
2022/11/21 00:05:04;;;;;;;20.13;12.80;;;4.50;99.90;;;;;;5063191;28;20521;-83
2022/11/21 00:07:33;;;;;;;23.37;14.83;;;4.50;99.90;;;;;;5063174;28;20541;-84
2022/11/21 00:09:59;;;;;;;19.30;13.73;;;4.40;99.90;;;;;;5062876;28;20503;-84
2022/11/21 00:12:26;;;;;;;17.63;12.50;;;4.40;99.90;;;;;;5063954;28;20826;-83
2022/11/21 00:14:53;;;;;;;18.80;13.10;;;4.40;99.90;;;;;;5082339;22;21089;-80
2022/11/21 00:17:20;;;;;;;15.37;11.03;;;4.40;99.90;;;;;;5076516;28;20514;-78
2022/11/21 00:19:47;;;;;;;18.30;12.80;;;4.40;99.90;;;;;;5067355;28;20449;-78
2022/11/21 00:22:14;;;;;;;16.07;11.90;;;4.50;99.90;;;;;;5059212;28;20989;-78
2022/11/21 00:24:42;;;;;;;21.43;13.43;;;4.40;99.90;;;;;;5063862;28;20474;-78
2022/11/21 00:27:08;;;;;;;19.20;12.30;;;4.40;99.90;;;;;;5075313;28;20458;-78
2022/11/21 00:29:35;;;;;;;19.67;13.50;;;4.30;99.90;;;;;;5074606;28;20479;-78
2022/11/21 00:32:02;;;;;;;21.90;12.97;;;4.30;99.90;;;;;;5083132;28;20813;-78
2022/11/21 00:34:29;;;;;;;17.37;12.57;;;4.40;99.90;;;;;;5084221;28;20554;-78
2022/11/21 00:36:55;;;;;;;19.33;13.77;;;4.40;99.90;;;;;;5080035;28;20541;-78
2022/11/21 00:39:22;;;;;;;15.07;11.40;;;4.30;99.90;;;;;;5074967;28;20453;-78
2022/11/21 00:41:50;;;;;;;20.93;13.30;;;4.30;99.90;;;;;;5075525;28;20443;-78
2022/11/21 00:44:17;;;;;;;18.60;13.20;;;4.30;99.90;;;;;;5074280;28;20529;-79
2022/11/21 00:46:44;;;;;;;18.70;13.50;;;4.30;99.90;;;;;;5067074;28;20418;-78
2022/11/21 00:49:11;;;;;;;21.13;12.63;;;4.30;99.90;;;;;;5074972;28;20861;-78
2022/11/21 00:51:38;;;;;;;17.17;12.30;;;4.30;99.90;;;;;;5075358;28;20461;-78
2022/11/21 00:54:04;;;;;;;21.00;13.83;;;4.30;99.90;;;;;;5074801;28;20467;-78
2022/11/21 00:56:31;;;;;;;22.20;14.93;;;4.30;99.90;;;;;;5055326;28;20452;-78
2022/11/21 00:58:59;;;;;;;21.43;12.53;;;4.30;99.90;;;;;;5054860;28;20443;-78
2022/11/21 01:01:26;;;;;;;20.00;13.33;;;4.30;99.90;;;;;;5073153;28;20466;-78
2022/11/21 01:03:53;;;;;;;19.67;11.97;;;4.30;99.90;;;;;;5075033;28;20855;-78
2022/11/21 01:06:20;;;;;;;18.50;11.47;;;4.30;99.90;;;;;;5075207;28;20455;-78
2022/11/21 01:08:47;;;;;;;16.67;12.63;;;4.30;99.90;;;;;;5074906;28;20500;-79
2022/11/21 01:11:15;;;;;;;18.53;12.13;;;4.30;99.90;;;;;;5075260;28;20448;-78
2022/11/21 01:13:43;;;;;;;18.70;11.63;;;4.40;99.90;;;;;;5074924;28;20537;-78
2022/11/21 01:16:13;;;;;;;19.57;13.30;;;4.40;99.90;;;;;;5074593;28;20451;-78
2022/11/21 01:18:40;;;;;;;20.50;13.67;;;4.40;99.90;;;;;;5074951;28;20447;-78
2022/11/21 01:21:12;;;;;;;15.13;10.57;;;4.40;99.90;;;;;;5074648;28;20451;-78
2022/11/21 01:23:39;;;;;;;14.93;11.07;;;4.30;99.90;;;;;;5074827;28;20463;-79
2022/11/21 01:26:08;;;;;;;19.70;11.93;;;4.40;99.90;;;;;;5074365;28;20461;-78
2022/11/21 01:28:35;;;;;;;16.70;11.37;;;4.30;99.90;;;;;;5074585;28;20522;-79
2022/11/21 01:31:05;;;;;;;18.73;11.33;;;4.30;99.90;;;;;;5074718;28;20916;-78
2022/11/21 01:33:34;;;;;;;15.13;11.47;;;4.40;99.90;;;;;;5075129;28;21019;-78
2022/11/21 01:36:07;;;;;;;15.80;10.83;;;4.40;99.90;;;;;;5074623;28;20465;-78
2022/11/21 01:38:37;;;;;;;14.50;11.70;;;4.40;99.90;;;;;;5072085;28;20455;-80
2022/11/21 01:41:04;;;;;;;15.87;10.47;;;4.40;99.90;;;;;;5054596;28;20513;-79
2022/11/21 01:43:31;;;;;;;15.97;10.80;;;4.40;99.90;;;;;;5059387;28;20475;-78
2022/11/21 01:45:59;;;;;;;15.23;10.57;;;4.50;99.90;;;;;;5074411;28;20905;-78
2022/11/21 01:48:32;;;;;;;17.70;11.33;;;4.50;99.90;;;;;;5073239;28;20452;-78
2022/11/21 01:51:05;;;;;;;15.23;11.00;;;4.60;99.90;;;;;;5073504;28;20446;-78
2022/11/21 01:53:33;;;;;;;14.73;9.80;;;4.60;99.90;;;;;;5073442;28;20467;-78
2022/11/21 01:56:01;;;;;;;14.30;9.23;;;4.60;99.90;;;;;;5073869;28;20983;-79
2022/11/21 01:58:29;;;;;;;14.73;10.10;;;4.50;99.90;;;;;;5073371;28;20446;-79
2022/11/21 02:00:59;;;;;;;19.40;12.80;;;4.50;99.90;;;;;;5074125;28;20454;-78
2022/11/21 02:03:29;;;;;;;14.13;9.93;;;4.50;99.90;;;;;;5073396;28;20475;-78
2022/11/21 02:05:56;;;;;;;13.57;9.97;;;4.50;99.90;;;;;;5073725;28;20455;-78
2022/11/21 02:08:27;;;;;;;18.87;11.00;;;4.50;99.90;;;;;;5073312;28;20455;-78
2022/11/21 02:11:00;;;;;;;16.90;11.03;;;4.60;99.90;;;;;;5073567;28;20575;-78
2022/11/21 02:13:27;;;;;;;14.90;10.57;;;4.60;99.90;;;;;;5073170;28;20477;-78
2022/11/21 02:15:54;;;;;;;16.53;11.07;;;4.60;99.90;;;;;;5073688;28;20455;-78
2022/11/21 02:18:21;;;;;;;14.67;10.63;;;4.60;99.90;;;;;;5073094;28;20444;-79
2022/11/21 02:20:53;;;;;;;19.33;11.97;;;4.70;99.90;;;;;;5067186;28;20450;-78
2022/11/21 02:23:29;;;;;;;16.33;10.23;;;4.70;99.90;;;;;;5073839;28;20487;-79
2022/11/21 02:25:58;;;;;;;18.47;11.77;;;4.70;99.90;;;;;;5073770;28;20993;-78
2022/11/21 02:28:25;;;;;;;19.03;12.53;;;4.70;99.90;;;;;;5073069;28;20452;-78
2022/11/21 02:30:52;;;;;;;16.93;11.80;;;4.70;99.90;;;;;;5073930;28;21062;-79
2022/11/21 02:33:19;;;;;;;21.00;12.67;;;4.70;99.90;;;;;;5073470;28;20471;-78
2022/11/21 02:35:56;;;;;;;19.83;13.57;;;4.70;99.90;;;;;;5073552;28;20451;-78
2022/11/21 02:38:27;;;;;;;20.10;12.73;;;4.70;99.90;;;;;;5072852;28;20820;-78
2022/11/21 02:41:00;;;;;;;17.17;11.40;;;4.70;99.90;;;;;;5073497;28;20443;-78
2022/11/21 02:43:31;;;;;;;16.73;12.50;;;4.80;99.90;;;;;;5072992;28;20477;-78
2022/11/21 02:45:58;;;;;;;16.10;11.17;;;4.70;99.90;;;;;;5073416;28;20450;-78
2022/11/21 02:48:25;;;;;;;18.37;11.80;;;4.70;99.90;;;;;;5073184;28;20455;-78
2022/11/21 02:50:52;;;;;;;14.70;10.03;;;4.70;99.90;;;;;;5073420;28;20483;-78
2022/11/21 02:53:19;;;;;;;17.93;11.60;;;4.60;99.90;;;;;;5073423;28;20448;-79
2022/11/21 02:55:46;;;;;;;16.17;11.97;;;4.70;99.90;;;;;;5072752;28;20451;-79
2022/11/21 02:58:14;;;;;;;17.97;12.60;;;4.60;99.90;;;;;;5072694;28;20947;-78
2022/11/21 03:00:42;;;;;;;18.10;13.80;;;4.70;99.90;;;;;;5072943;28;20456;-78
2022/11/21 03:03:11;;;;;;;16.80;12.80;;;4.70;99.90;;;;;;5072684;28;20461;-79
2022/11/21 03:05:38;;;;;;;19.03;12.80;;;4.70;99.90;;;;;;5073539;28;20456;-79
2022/11/21 03:08:06;;;;;;;15.80;12.27;;;4.60;99.90;;;;;;5072680;28;20462;-80
2022/11/21 03:10:33;;;;;;;20.30;12.37;;;4.60;99.90;;;;;;5073216;28;20483;-79
2022/11/21 03:13:03;;;;;;;16.60;11.93;;;4.60;99.90;;;;;;5073078;28;20422;-78
2022/11/21 03:15:33;;;;;;;17.77;13.30;;;4.50;99.90;;;;;;5073957;28;20827;-78
2022/11/21 03:18:01;;;;;;;20.80;13.13;;;4.40;99.90;;;;;;5073648;28;20463;-78
2022/11/21 03:20:28;;;;;;;22.40;13.97;;;4.50;99.90;;;;;;5073509;28;20455;-78
2022/11/21 03:22:58;;;;;;;23.53;13.83;;;4.50;99.90;;;;;;5072911;28;20455;-78
2022/11/21 03:25:25;;;;;;;17.63;11.57;;;4.40;99.90;;;;;;5073076;28;20445;-78
2022/11/21 03:27:53;;;;;;;21.80;15.17;;;4.40;99.90;;;;;;5073037;28;20449;-78
2022/11/21 03:30:20;;;;;;;20.17;13.33;;;4.40;99.90;;;;;;5072808;28;20471;-78
2022/11/21 03:32:48;;;;;;;22.60;12.87;;;4.40;99.90;;;;;;5072986;28;20447;-78
2022/11/21 03:35:15;;;;;;;17.37;11.63;;;4.30;99.90;;;;;;5072739;28;20860;-79
2022/11/21 03:37:42;;;;;;;18.30;12.43;;;4.40;99.90;;;;;;5073110;28;20461;-78
2022/11/21 03:40:10;;;;;;;23.00;14.23;;;4.40;99.90;;;;;;5073299;28;20455;-78
2022/11/21 03:42:37;;;;;;;20.00;13.00;;;4.30;99.90;;;;;;5073739;28;20454;-79
2022/11/21 03:45:05;;;;;;;19.97;13.77;;;4.40;99.90;;;;;;5073290;28;21001;-79
2022/11/21 03:47:31;;;;;;;19.37;13.10;;;4.40;99.90;;;;;;5069305;28;20426;-79
2022/11/21 03:50:00;;;;;;;19.50;12.57;;;4.30;99.90;;;;;;5072489;28;20521;-78
2022/11/21 03:52:26;;;;;;;21.77;12.87;;;4.30;99.90;;;;;;5073064;28;20439;-79
2022/11/21 03:54:53;;;;;;;24.10;14.40;;;4.20;99.90;;;;;;5072563;28;20860;-78
2022/11/21 03:57:20;;;;;;;21.63;14.27;;;4.20;99.90;;;;;;5072786;28;20522;-78
2022/11/21 03:59:47;;;;;;;24.70;15.50;;;4.20;99.90;;;;;;5072029;28;20453;-78
2022/11/21 04:02:13;;;;;;;22.43;14.50;;;4.20;99.90;;;;;;5072576;28;20453;-78
2022/11/21 04:04:40;;;;;;;17.67;13.13;;;4.20;99.90;;;;;;5073711;28;20559;-78
2022/11/21 04:07:08;;;;;;;26.07;15.87;;;4.20;99.90;;;;;;5087037;28;20511;-78
2022/11/21 04:09:35;;;;;;;22.90;13.13;;;4.20;99.90;;;;;;5086797;28;20567;-78
2022/11/21 04:12:02;;;;;;;18.47;11.23;;;4.20;99.90;;;;;;5081502;28;20422;-78
2022/11/21 04:14:29;;;;;;;19.30;11.20;;;4.10;99.90;;;;;;5072179;28;20482;-78
2022/11/21 04:16:55;;;;;;;21.03;12.63;;;4.20;99.90;;;;;;5072712;28;20477;-78
2022/11/21 04:19:22;;;;;;;21.77;12.50;;;4.30;99.90;;;;;;5072801;28;20447;-79
2022/11/21 04:21:49;;;;;;;22.80;12.63;;;4.20;99.90;;;;;;5076006;28;20457;-78
2022/11/21 04:24:17;;;;;;;29.30;13.87;;;4.30;99.90;;;;;;5075572;28;20472;-79
2022/11/21 04:26:47;;;;;;;23.97;13.10;;;4.30;99.90;;;;;;5075922;28;20466;-78
2022/11/21 04:29:13;;;;;;;24.73;13.00;;;4.40;99.90;;;;;;5074978;28;20455;-78
2022/11/21 04:31:40;;;;;;;18.53;11.90;;;4.40;99.90;;;;;;5075515;28;20480;-78
2022/11/21 04:34:07;;;;;;;16.50;11.70;;;4.40;99.90;;;;;;5075687;28;20467;-78
2022/11/21 04:36:34;;;;;;;27.07;15.77;;;4.40;99.90;;;;;;5076156;28;20465;-78
2022/11/21 04:39:00;;;;;;;26.13;15.00;;;4.40;99.90;;;;;;5075412;28;20538;-78
2022/11/21 04:41:29;;;;;;;21.07;12.80;;;4.40;99.90;;;;;;5074622;28;20558;-78
2022/11/21 04:43:55;;;;;;;23.17;13.20;;;4.40;99.90;;;;;;5072911;28;20468;-78
2022/11/21 04:46:22;;;;;;;25.27;13.90;;;4.40;99.90;;;;;;5068034;28;20449;-78
2022/11/21 04:48:49;;;;;;;27.97;14.07;;;4.40;99.90;;;;;;5075615;28;20453;-78
2022/11/21 04:51:16;;;;;;;23.30;12.53;;;4.40;99.90;;;;;;5074742;28;20478;-78
2022/11/21 04:53:43;;;;;;;26.73;14.77;;;4.50;99.90;;;;;;5068066;28;20841;-78
2022/11/21 04:56:09;;;;;;;21.40;13.73;;;4.40;99.90;;;;;;5075061;28;20448;-78
2022/11/21 04:58:37;;;;;;;17.93;13.20;;;4.50;99.90;;;;;;5074979;28;20910;-78
2022/11/21 05:01:08;;;;;;;24.13;12.60;;;4.50;99.90;;;;;;5075107;28;20432;-78
2022/11/21 05:03:35;;;;;;;25.67;14.57;;;4.50;99.90;;;;;;5075232;28;20861;-78
2022/11/21 05:06:02;;;;;;;22.60;13.47;;;4.50;99.90;;;;;;5074998;28;20458;-78
2022/11/21 05:08:29;;;;;;;22.47;12.83;;;4.60;99.90;;;;;;5073366;28;20455;-78
2022/11/21 05:13:42;;;;;;;24.13;13.30;;;4.70;99.90;;;;;;5074319;28;20480;-79
2022/11/21 05:16:09;;;;;;;30.30;15.30;;;4.70;99.90;;;;;;5061942;28;20454;-78
2022/11/21 05:18:38;;;;;;;23.37;14.23;;;4.70;99.90;;;;;;5073514;28;20458;-78
2022/11/21 05:21:05;;;;;;;27.67;14.70;;;4.70;99.90;;;;;;5073704;28;20454;-78
2022/11/21 05:23:32;;;;;;;20.47;13.00;;;4.70;99.90;;;;;;5072620;28;20487;-78
2022/11/21 05:25:58;;;;;;;24.53;13.10;;;4.70;99.90;;;;;;5072670;28;20508;-78
2022/11/21 05:28:25;;;;;;;24.77;14.83;;;4.70;99.90;;;;;;5083116;28;20449;-78
2022/11/21 05:30:53;;;;;;;35.13;20.77;;;4.70;99.90;;;;;;5082626;28;20484;-78
2022/11/21 05:33:20;;;;;;;30.53;14.60;;;4.60;99.90;;;;;;5075761;28;20473;-78
2022/11/21 05:35:47;;;;;;;27.87;14.73;;;4.60;99.90;;;;;;5074241;28;20447;-77
2022/11/21 05:38:14;;;;;;;35.10;18.00;;;4.60;99.90;;;;;;5073931;28;20459;-78
2022/11/21 05:40:41;;;;;;;30.83;16.47;;;4.50;99.90;;;;;;5074311;28;20447;-79
2022/11/21 05:45:55;;;;;;;27.90;14.70;;;4.40;99.90;;;;;;5074414;28;20427;-78
2022/11/21 05:48:21;;;;;;;28.60;17.13;;;4.50;99.90;;;;;;5054286;28;20827;-78
2022/11/21 05:50:49;;;;;;;30.63;16.40;;;4.50;99.90;;;;;;5054555;28;20486;-78
2022/11/21 05:53:16;;;;;;;32.80;16.50;;;4.60;99.90;;;;;;5073071;28;20447;-78
2022/11/21 05:55:43;;;;;;;30.67;17.83;;;4.60;99.90;;;;;;5074422;28;20447;-78
2022/11/21 05:58:10;;;;;;;33.10;17.60;;;4.60;99.90;;;;;;5073271;28;20467;-77
2022/11/21 06:00:38;;;;;;;29.00;16.70;;;4.60;99.90;;;;;;5073669;28;20428;-79
2022/11/21 06:05:52;;;;;;;35.40;18.20;;;4.60;99.90;;;;;;5073016;28;20441;-78
2022/11/21 06:08:19;;;;;;;26.27;15.33;;;4.70;99.90;;;;;;5071564;28;20448;-78
2022/11/21 06:10:45;;;;;;;33.10;19.00;;;4.70;99.90;;;;;;5071389;28;20485;-78
2022/11/21 06:13:21;;;;;;;38.20;18.40;;;4.70;99.90;;;;;;5065675;28;20450;-77
2022/11/21 06:15:53;;;;;;;34.33;16.67;;;4.70;99.90;;;;;;5113432;22;20474;-82
2022/11/21 06:18:21;;;;;;;29.50;17.03;;;4.70;99.90;;;;;;5054539;28;21890;-82
2022/11/21 06:20:54;;;;;;;30.53;17.20;;;4.70;99.90;;;;;;5057815;28;20479;-82
2022/11/21 06:23:21;;;;;;;34.50;17.80;;;4.80;99.90;;;;;;5057719;28;20446;-82
2022/11/21 06:25:57;;;;;;;28.70;16.87;;;4.80;99.90;;;;;;5058631;28;20461;-83
2022/11/21 06:28:24;;;;;;;35.80;18.03;;;4.80;99.90;;;;;;5053226;28;20446;-84
2022/11/21 06:30:51;;;;;;;34.53;19.03;;;4.70;99.90;;;;;;5056159;28;20537;-83
2022/11/21 06:33:18;;;;;;;32.50;17.97;;;4.70;99.90;;;;;;5041430;28;20450;-83
2022/11/21 06:35:46;;;;;;;34.43;18.10;;;4.70;99.90;;;;;;5057354;28;20579;-82
2022/11/21 06:38:17;;;;;;;35.10;17.10;;;4.70;99.90;;;;;;5064203;28;20511;-82
2022/11/21 06:40:44;;;;;;;30.57;15.57;;;4.70;99.90;;;;;;5064442;28;20535;-83
2022/11/21 06:43:11;;;;;;;34.63;17.13;;;4.70;99.90;;;;;;5057721;28;20831;-82
2022/11/21 06:45:38;;;;;;;36.40;18.90;;;4.70;99.90;;;;;;5055910;28;20465;-82
2022/11/21 06:48:05;;;;;;;36.43;18.17;;;4.80;99.90;;;;;;5064893;28;20444;-83
2022/11/21 06:50:32;;;;;;;34.97;17.50;;;4.80;99.90;;;;;;5059762;28;20518;-80
2022/11/21 06:53:00;;;;;;;29.23;15.57;;;4.80;99.90;;;;;;5059645;28;20892;-80
2022/11/21 06:55:28;;;;;;;28.57;15.97;;;4.80;99.90;;;;;;5053172;28;20515;-82
2022/11/21 06:57:57;;;;;;;28.80;15.87;;;4.80;99.90;;;;;;5059553;28;20449;-81
2022/11/21 07:00:24;;;;;;;34.83;18.43;;;4.80;99.90;;;;;;5058054;28;20450;-81
2022/11/21 07:02:51;;;;;;;29.30;16.27;;;4.80;99.90;;;;;;5062928;28;20436;-82
2022/11/21 07:05:18;;;;;;;33.83;18.30;;;4.90;99.90;;;;;;5053818;28;20560;-81
2022/11/21 07:07:45;;;;;;;35.43;18.33;;;4.80;99.90;;;;;;5063867;28;20472;-81
2022/11/21 07:10:15;;;;;;;32.63;19.43;;;4.90;99.90;;;;;;5049469;28;21015;-81
2022/11/21 07:15:26;;;;;;;32.10;16.40;;;5.00;99.90;;;;;;5057908;28;20480;-83
2022/11/21 07:17:53;;;;;;;33.47;17.33;;;5.00;99.90;;;;;;5058701;28;20537;-81
2022/11/21 07:20:19;;;;;;;36.30;18.50;;;5.10;99.90;;;;;;5059725;28;20551;-81
2022/11/21 07:22:46;;;;;;;35.43;18.67;;;5.10;99.90;;;;;;5059029;28;20487;-82
2022/11/21 07:25:14;;;;;;;35.27;17.47;;;5.10;99.90;;;;;;5057460;28;20471;-80
2022/11/21 07:27:41;;;;;;;45.00;20.20;;;5.00;99.90;;;;;;5057958;28;20567;-81
2022/11/21 07:30:09;;;;;;;32.43;16.43;;;5.00;99.90;;;;;;5058868;28;20454;-83
2022/11/21 07:32:36;;;;;;;33.33;16.43;;;5.00;99.90;;;;;;5058787;28;20445;-82
2022/11/21 07:35:03;;;;;;;30.13;16.87;;;5.10;99.90;;;;;;5057514;28;20474;-84
2022/11/21 07:37:30;;;;;;;35.43;19.47;;;5.10;99.90;;;;;;5057879;28;20452;-83
2022/11/21 07:39:57;;;;;;;41.63;18.57;;;5.10;99.90;;;;;;5057211;28;20451;-83
2022/11/21 07:42:25;;;;;;;33.13;17.67;;;5.20;99.90;;;;;;5055870;28;20520;-82
2022/11/21 07:44:52;;;;;;;44.33;21.60;;;5.30;99.90;;;;;;5056297;28;20470;-82
2022/11/21 07:47:18;;;;;;;46.27;20.13;;;5.10;99.90;;;;;;5056593;28;20444;-82
2022/11/21 07:49:45;;;;;;;39.53;19.00;;;5.10;99.90;;;;;;5057418;28;20455;-83
2022/11/21 07:52:12;;;;;;;47.83;20.97;;;5.20;99.90;;;;;;5052443;28;20553;-82
2022/11/21 07:54:39;;;;;;;40.70;20.37;;;5.20;99.90;;;;;;5056898;28;20465;-83
2022/11/21 07:57:06;;;;;;;38.20;19.30;;;5.20;99.90;;;;;;5056617;28;20477;-83
2022/11/21 07:59:34;;;;;;;35.10;17.80;;;5.30;99.90;;;;;;5060332;28;20544;-83
2022/11/21 08:02:00;;;;;;;52.30;20.27;;;5.40;99.90;;;;;;5062559;28;20520;-83
2022/11/21 08:04:28;;;;;;;39.43;20.70;;;5.50;99.90;;;;;;5078962;28;20529;-84
2022/11/21 08:06:55;;;;;;;33.10;17.47;;;5.50;99.90;;;;;;5063981;28;20537;-81
2022/11/21 08:09:22;;;;;;;43.30;19.67;;;5.60;99.90;;;;;;5058989;28;20448;-83
2022/11/21 08:11:49;;;;;;;33.67;17.27;;;5.60;99.90;;;;;;5057967;28;21044;-84
2022/11/21 08:14:15;;;;;;;35.33;18.50;;;5.60;99.90;;;;;;5058194;28;20569;-84
2022/11/21 08:16:43;;;;;;;36.50;18.10;;;5.60;99.90;;;;;;5056302;28;20453;-83
2022/11/21 08:19:10;;;;;;;37.90;17.03;;;5.60;99.90;;;;;;5056956;28;20456;-84
2022/11/21 08:21:37;;;;;;;37.60;19.50;;;5.70;99.90;;;;;;5058538;28;20457;-85
2022/11/21 08:24:04;;;;;;;33.97;19.23;;;5.70;99.90;;;;;;5059182;28;20458;-84
2022/11/21 08:26:31;;;;;;;37.33;16.07;;;5.70;99.90;;;;;;5058585;28;20925;-85
2022/11/21 08:28:58;;;;;;;41.77;19.77;;;5.80;99.90;;;;;;5058045;28;20458;-85
2022/11/21 08:31:24;;;;;;;38.23;18.23;;;5.90;99.90;;;;;;5059520;28;20482;-84
2022/11/21 08:33:57;;;;;;;35.53;19.20;;;5.90;99.90;;;;;;5058881;28;20543;-85
2022/11/21 08:36:24;;;;;;;35.43;16.47;;;5.90;99.90;;;;;;5058566;28;20458;-84
2022/11/21 08:38:51;;;;;;;33.93;17.40;;;5.90;99.90;;;;;;5059086;28;20540;-85
2022/11/21 08:44:02;;;;;;;33.17;16.60;;;5.90;99.90;;;;;;5057499;28;20538;-85
2022/11/21 08:46:31;;;;;;;36.53;18.73;;;5.90;99.90;;;;;;5059037;28;20475;-85
2022/11/21 08:48:59;;;;;;;30.73;17.53;;;6.00;99.90;;;;;;5058436;28;20453;-85
2022/11/21 08:51:26;;;;;;;37.97;16.23;;;6.00;99.90;;;;;;5056542;28;21086;-85
2022/11/21 08:53:53;;;;;;;33.30;15.93;;;6.00;99.90;;;;;;5058398;28;20902;-85
2022/11/21 08:56:19;;;;;;;39.43;17.27;;;6.10;99.90;;;;;;5058275;28;20501;-84
2022/11/21 08:58:46;;;;;;;34.70;16.90;;;6.10;99.90;;;;;;5057809;28;20450;-84
2022/11/21 09:01:13;;;;;;;37.90;16.97;;;6.10;99.90;;;;;;5057224;28;20456;-84
2022/11/21 09:03:40;;;;;;;30.07;15.50;;;6.20;99.90;;;;;;5057273;28;20460;-84
2022/11/21 09:06:08;;;;;;;37.60;18.33;;;6.20;99.90;;;;;;5056826;28;20602;-84
2022/11/21 09:08:35;;;;;;;35.60;17.90;;;6.20;99.90;;;;;;5058197;28;21020;-84
2022/11/21 09:11:04;;;;;;;35.67;18.90;;;6.20;99.90;;;;;;5059729;28;20569;-85
2022/11/21 09:13:31;;;;;;;36.00;18.67;;;6.30;99.90;;;;;;5043862;28;21015;-83
2022/11/21 09:18:43;;;;;;;35.90;17.47;;;6.20;99.90;;;;;;5057142;28;20435;-84
2022/11/21 09:21:14;;;;;;;38.87;19.20;;;6.20;99.90;;;;;;5057891;28;20478;-85
2022/11/21 09:23:41;;;;;;;41.67;18.93;;;6.20;99.90;;;;;;5058706;28;20458;-84
2022/11/21 09:26:08;;;;;;;42.00;17.77;;;6.20;99.90;;;;;;5057431;28;20471;-84
2022/11/21 09:28:35;;;;;;;36.50;19.20;;;6.20;99.90;;;;;;5057523;28;20454;-85
2022/11/21 09:31:03;;;;;;;41.90;20.90;;;6.20;99.90;;;;;;5057060;28;20449;-86
2022/11/21 09:33:30;;;;;;;38.27;19.17;;;6.30;99.90;;;;;;5057714;28;20535;-85
2022/11/21 09:35:58;;;;;;;46.53;21.90;;;6.40;99.90;;;;;;5058061;28;20545;-85
2022/11/21 09:38:28;;;;;;;50.20;21.63;;;6.40;99.90;;;;;;5056918;28;20459;-85
2022/11/21 09:41:50;;;;;;;41.43;18.73;;;6.40;99.90;;;;;;5057707;28;20462;-85
2022/11/21 09:44:06;;;;;;;35.73;18.90;;;6.50;99.90;;;;;;5044516;28;20446;-85
2022/11/21 09:46:43;;;;;;;43.60;18.47;;;6.60;99.90;;;;;;5057548;28;20536;-85
2022/11/21 09:49:13;;;;;;;42.00;19.47;;;6.70;99.90;;;;;;5056857;28;20541;-84
2022/11/21 09:51:42;;;;;;;44.27;19.43;;;6.80;99.90;;;;;;5057801;28;20496;-84
2022/11/21 09:54:17;;;;;;;42.53;20.20;;;6.80;99.90;;;;;;5058287;28;20533;-84
2022/11/21 09:56:45;;;;;;;47.03;21.57;;;6.80;99.90;;;;;;5056198;28;20529;-85
2022/11/21 09:59:32;;;;;;;36.93;18.70;;;6.80;99.90;;;;;;5058022;28;20522;-84
2022/11/21 10:01:59;;;;;;;45.23;20.57;;;7.00;99.90;;;;;;5058293;28;20923;-85
2022/11/21 10:04:27;;;;;;;38.70;19.67;;;7.00;99.90;;;;;;5059077;28;21190;-84
2022/11/21 10:07:01;;;;;;;33.83;17.60;;;7.00;99.90;;;;;;5060434;28;20476;-84
2022/11/21 10:09:45;;;;;;;42.43;18.57;;;7.00;99.90;;;;;;5062045;28;20455;-85
2022/11/21 10:12:37;;;;;;;42.30;19.67;;;7.00;99.90;;;;;;5078948;28;20482;-83
2022/11/21 10:15:19;;;;;;;34.67;18.13;;;7.10;99.90;;;;;;5057821;28;21034;-84
2022/11/21 10:17:59;;;;;;;38.70;17.67;;;7.20;99.90;;;;;;5053902;28;20454;-85
2022/11/21 10:20:41;;;;;;;42.23;20.53;;;7.30;99.90;;;;;;5055335;28;20498;-84
2022/11/21 10:23:25;;;;;;;38.00;18.90;;;7.40;99.90;;;;;;5035540;28;20450;-84
2022/11/21 10:25:57;;;;;;;41.87;19.90;;;7.60;99.90;;;;;;5042486;28;20559;-84
2022/11/21 10:28:33;;;;;;;33.33;20.37;;;7.80;99.90;;;;;;5055600;28;20875;-84
2022/11/21 10:31:03;;;;;;;29.00;16.00;;;7.90;99.90;;;;;;5055460;28;20454;-83
2022/11/21 10:33:33;;;;;;;38.43;18.47;;;7.80;99.90;;;;;;5054168;28;20456;-84
2022/11/21 10:36:05;;;;;;;42.20;20.17;;;7.90;99.90;;;;;;5054102;28;20830;-83
2022/11/21 10:38:38;;;;;;;30.17;16.40;;;8.00;99.90;;;;;;5054609;28;20456;-83
2022/11/21 10:41:15;;;;;;;42.80;18.97;;;8.00;99.90;;;;;;5055409;28;20456;-84
2022/11/21 10:46:32;;;;;;;36.27;17.50;;;8.10;99.90;;;;;;5048709;28;20447;-83
2022/11/21 10:49:00;;;;;;;39.33;18.10;;;8.00;99.90;;;;;;5055928;28;20831;-84
2022/11/21 10:51:44;;;;;;;39.90;17.77;;;8.00;99.90;;;;;;5056234;28;20482;-84
2022/11/21 10:57:01;;;;;;;32.57;18.23;;;8.00;99.90;;;;;;5055058;28;20443;-84
2022/11/21 10:59:29;;;;;;;32.60;16.60;;;8.10;99.90;;;;;;5055351;28;20460;-84
2022/11/21 11:01:58;;;;;;;42.20;18.80;;;8.10;99.90;;;;;;5055932;28;20711;-83
2022/11/21 11:04:27;;;;;;;24.13;15.63;;;8.00;99.90;;;;;;5055620;28;20554;-84
2022/11/21 11:06:54;;;;;;;33.33;16.30;;;8.20;99.90;;;;;;5055619;28;20987;-83
2022/11/21 11:09:28;;;;;;;36.17;19.87;;;8.30;99.90;;;;;;5055922;28;20441;-85
2022/11/21 11:13:32;;;;;;;30.03;16.60;;;8.50;99.90;;;;;;5056945;28;20515;-83
2022/11/21 11:15:21;;;;;;;38.80;19.43;;;9.00;99.90;;;;;;5054288;28;20475;-82
2022/11/21 11:17:57;;;;;;;28.30;16.17;;;9.30;99.90;;;;;;5053654;28;20544;-82
2022/11/21 11:20:36;;;;;;;31.90;16.27;;;9.40;99.90;;;;;;5052260;28;20448;-82
2022/11/21 11:23:17;;;;;;;34.03;15.70;;;9.60;99.90;;;;;;5051704;28;20450;-80
2022/11/21 11:25:47;;;;;;;29.20;16.40;;;9.80;99.90;;;;;;5052583;28;20548;-83
2022/11/21 11:28:15;;;;;;;25.20;15.23;;;9.60;99.90;;;;;;5053720;28;20452;-84
2022/11/21 11:30:43;;;;;;;27.90;16.03;;;9.40;99.90;;;;;;5053797;28;20460;-84
2022/11/21 11:33:31;;;;;;;30.00;15.77;;;9.30;99.90;;;;;;5058497;28;20485;-84
2022/11/21 11:36:08;;;;;;;28.40;16.30;;;9.20;99.90;;;;;;5058891;28;20466;-83
2022/11/21 11:38:35;;;;;;;21.13;14.07;;;9.20;99.90;;;;;;5059774;28;20456;-83
2022/11/21 11:41:13;;;;;;;18.10;13.77;;;9.00;99.90;;;;;;5057911;28;20854;-83
2022/11/21 11:50:09;;;;;;;21.23;13.87;;;9.20;99.90;;;;;;5057618;28;20916;-83
2022/11/21 11:52:28;;;;;;;18.37;13.00;;;9.30;99.90;;;;;;5058496;28;20829;-83
2022/11/21 11:54:59;;;;;;;24.80;13.93;;;9.50;99.90;;;;;;5058321;28;20483;-84
2022/11/21 11:57:30;;;;;;;16.87;12.83;;;9.60;99.90;;;;;;5058609;28;20456;-83
2022/11/21 12:00:07;;;;;;;15.80;12.50;;;9.90;99.90;;;;;;5057812;28;20450;-81
2022/11/21 12:02:45;;;;;;;14.13;11.53;;;10.20;99.90;;;;;;5057269;28;20445;-81
2022/11/21 12:05:19;;;;;;;14.53;10.83;;;10.60;99.90;;;;;;5057503;28;20553;-81
2022/11/21 12:07:51;;;;;;;16.70;10.30;;;10.60;99.90;;;;;;5055921;28;20457;-81
2022/11/21 12:10:24;;;;;;;19.07;11.30;;;10.70;99.90;;;;;;5057719;28;20552;-82
2022/11/21 12:12:56;;;;;;;14.40;9.73;;;10.50;99.90;;;;;;5057998;28;20490;-83
2022/11/21 12:18:31;;;;;;;10.73;8.53;;;10.10;99.90;;;;;;5117775;22;20568;-86
2022/11/21 12:21:07;;;;;;;16.90;9.27;;;10.30;99.90;;;;;;5069656;28;20459;-84
2022/11/21 12:23:45;;;;;;;11.70;7.67;;;10.20;99.90;;;;;;5068364;28;20458;-83
2022/11/21 12:26:29;;;;;;;13.60;7.23;;;10.10;99.90;;;;;;5064185;28;20454;-84
2022/11/21 12:29:07;;;;;;;14.73;9.40;;;10.40;99.90;;;;;;5062160;28;20469;-84
2022/11/21 12:31:46;;;;;;;10.23;8.50;;;10.10;99.90;;;;;;5063163;28;20458;-84
2022/11/21 12:34:30;;;;;;;13.50;8.43;;;9.90;99.90;;;;;;5061581;28;20542;-84
2022/11/21 12:37:04;;;;;;;12.97;8.63;;;9.80;99.90;;;;;;5042263;28;20546;-84
2022/11/21 12:39:54;;;;;;;12.37;8.60;;;9.70;99.90;;;;;;5046637;28;20470;-85
2022/11/21 12:45:27;;;;;;;9.37;8.37;;;9.60;99.90;;;;;;5067268;28;20480;-85
2022/11/21 12:55:08;;;;;;;9.87;8.00;;;9.60;99.90;;;;;;5054050;28;20459;-86
2022/11/21 12:57:48;;;;;;;10.70;7.43;;;9.60;99.90;;;;;;5061150;28;20523;-84
2022/11/21 13:00:21;;;;;;;9.93;7.70;;;9.30;99.90;;;;;;5058552;28;20539;-84
2022/11/21 13:03:22;;;;;;;12.63;7.07;;;9.50;99.90;;;;;;5054935;28;20513;-84
2022/11/21 13:05:52;;;;;;;11.70;8.87;;;9.60;99.90;;;;;;5047248;28;20967;-83
2022/11/21 13:08:23;;;;;;;11.50;7.83;;;9.80;99.90;;;;;;5065889;28;20508;-84
2022/11/21 13:13:45;;;;;;;11.13;8.30;;;10.00;99.90;;;;;;5055632;28;20502;-85
2022/11/21 13:16:35;;;;;;;12.80;7.83;;;9.90;99.90;;;;;;5052290;28;20542;-84
2022/11/21 13:19:12;;;;;;;12.73;9.13;;;10.00;99.90;;;;;;5048214;28;20486;-84
2022/11/21 13:21:44;;;;;;;10.80;7.60;;;10.10;99.90;;;;;;5056047;28;20464;-85
2022/11/21 13:24:11;;;;;;;11.53;8.07;;;10.00;99.90;;;;;;5058888;28;20949;-84
2022/11/21 13:26:53;;;;;;;10.10;7.73;;;9.90;99.90;;;;;;5047018;28;20933;-85
2022/11/21 13:29:19;;;;;;;12.80;8.80;;;9.80;99.90;;;;;;5046085;28;20472;-85
2022/11/21 13:31:46;;;;;;;13.73;8.40;;;9.80;99.90;;;;;;5044331;28;20453;-84
2022/11/21 13:34:43;;;;;;;11.97;8.40;;;9.80;99.90;;;;;;5053599;28;20507;-84